createdAt,value
2023-06-19T00:00:14.955Z,100803.22
2023-06-19T00:02:42.617Z,100804.78
2023-06-19T00:05:11.045Z,100800.25
2023-06-19T00:07:40.964Z,100800.06
2023-06-19T00:10:08.233Z,100802.44
2023-06-19T00:12:35.191Z,100806.19
2023-06-19T00:15:02.228Z,100806.97
2023-06-19T00:17:31.744Z,100809.66
2023-06-19T00:19:58.707Z,100799.59
2023-06-19T00:22:31.342Z,100794.22
2023-06-19T00:24:58.550Z,100793.53
2023-06-19T00:27:25.485Z,100794.22
2023-06-19T00:29:52.709Z,100798.72
2023-06-19T00:32:19.741Z,100793.03
2023-06-19T00:34:46.687Z,100798.88
2023-06-19T00:37:18.067Z,100789.66
2023-06-19T00:39:45.235Z,100792.38
2023-06-19T00:42:12.435Z,100786.25
2023-06-19T00:44:40.130Z,100796.44
2023-06-19T00:47:07.208Z,100786.41
2023-06-19T00:49:34.493Z,100785.88
2023-06-19T00:52:01.503Z,100786.84
2023-06-19T00:54:28.475Z,100778.53
2023-06-19T00:56:55.446Z,100781.03
2023-06-19T00:59:25.351Z,100775.63
2023-06-19T01:01:52.311Z,100783.94
2023-06-19T01:04:21.981Z,100762.75
2023-06-19T01:07:10.503Z,100760.75
2023-06-19T01:09:48.971Z,100762.50
2023-06-19T01:12:25.200Z,100761.81
2023-06-19T01:14:59.765Z,100747.78
2023-06-19T01:17:30.868Z,100750.59
2023-06-19T01:19:59.061Z,100740.19
2023-06-19T01:22:31.354Z,100726.94
2023-06-19T01:25:01.027Z,100732.59
2023-06-19T01:27:31.564Z,100717.75
2023-06-19T01:30:03.019Z,100724.53
2023-06-19T01:32:57.255Z,100728.44
2023-06-19T01:35:30.959Z,100730.03
2023-06-19T01:38:00.319Z,100731.19
2023-06-19T01:40:28.847Z,100732.97
2023-06-19T01:43:00.417Z,100727.78
2023-06-19T01:45:30.409Z,100728.53
2023-06-19T01:47:58.274Z,100726.94
2023-06-19T01:50:26.215Z,100726.94
2023-06-19T01:52:53.674Z,100720.56
2023-06-19T01:55:21.331Z,100715.84
2023-06-19T01:57:51.409Z,100714.25
2023-06-19T02:00:19.135Z,100710.91
2023-06-19T02:02:50.706Z,100712.19
2023-06-19T02:05:19.850Z,100703.50
2023-06-19T02:07:46.744Z,100698.75
2023-06-19T02:10:15.746Z,100704.59
2023-06-19T02:12:42.620Z,100709.66
2023-06-19T02:15:14.646Z,100712.19
2023-06-19T02:17:43.508Z,100711.63
2023-06-19T02:20:12.539Z,100710.00
2023-06-19T02:22:40.401Z,100703.09
2023-06-19T02:25:13.088Z,100688.13
2023-06-19T02:27:39.986Z,100701.56
2023-06-19T02:30:07.827Z,100707.94
2023-06-19T02:32:37.273Z,100701.63
2023-06-19T02:35:10.222Z,100709.19
2023-06-19T02:37:39.282Z,100702.66
2023-06-19T02:40:07.542Z,100702.28
2023-06-19T02:42:34.516Z,100705.53
2023-06-19T02:45:04.551Z,100709.06
2023-06-19T02:47:35.081Z,100711.34
2023-06-19T02:50:05.820Z,100713.53
2023-06-19T02:52:32.964Z,100715.72
2023-06-19T02:55:02.357Z,100700.44
2023-06-19T02:57:29.268Z,100694.53
2023-06-19T02:59:56.127Z,100691.59
2023-06-19T03:02:23.097Z,100687.66
2023-06-19T03:04:52.339Z,100692.44
2023-06-19T03:07:19.227Z,100692.31
2023-06-19T03:09:48.606Z,100692.38
2023-06-19T03:12:17.687Z,100693.06
2023-06-19T03:14:44.677Z,100694.72
2023-06-19T03:17:11.672Z,100692.69
2023-06-19T03:19:38.676Z,100693.69
2023-06-19T03:22:05.979Z,100679.94
2023-06-19T03:24:33.011Z,100689.66
2023-06-19T03:26:59.936Z,100675.34
2023-06-19T03:29:26.828Z,100688.56
2023-06-19T03:31:57.180Z,100677.06
2023-06-19T03:34:28.714Z,100678.84
2023-06-19T03:36:58.850Z,100681.81
2023-06-19T03:39:26.030Z,100669.25
2023-06-19T03:41:52.918Z,100672.38
2023-06-19T03:44:19.887Z,100665.44
2023-06-19T03:46:48.582Z,100669.69
2023-06-19T03:49:15.584Z,100671.75
2023-06-19T03:51:42.496Z,100667.47
2023-06-19T03:54:09.406Z,100670.78
2023-06-19T03:56:36.273Z,100662.03
2023-06-19T03:59:03.211Z,100661.19
2023-06-19T04:01:30.238Z,100655.13
2023-06-19T04:04:00.358Z,100652.63
2023-06-19T04:06:27.420Z,100648.00
2023-06-19T04:08:56.813Z,100655.41
2023-06-19T04:11:23.748Z,100657.47
2023-06-19T04:13:50.629Z,100660.34
2023-06-19T04:16:17.661Z,100657.47
2023-06-19T04:18:44.616Z,100664.47
2023-06-19T04:21:11.500Z,100664.66
2023-06-19T04:23:38.401Z,100666.28
2023-06-19T04:26:05.311Z,100662.81
2023-06-19T04:28:32.207Z,100669.34
2023-06-19T04:31:03.872Z,100666.25
2023-06-19T04:33:31.014Z,100669.84
2023-06-19T04:36:02.906Z,100662.03
2023-06-19T04:38:29.811Z,100667.56
2023-06-19T04:40:58.766Z,100667.56
2023-06-19T04:43:25.985Z,100661.94
2023-06-19T04:45:53.303Z,100662.38
2023-06-19T04:48:20.332Z,100653.91
2023-06-19T04:50:49.407Z,100654.22
2023-06-19T04:53:18.845Z,100654.38
2023-06-19T04:55:46.106Z,100650.50
2023-06-19T04:58:15.512Z,100656.56
2023-06-19T05:00:52.093Z,100660.56
2023-06-19T05:03:19.640Z,100665.44
2023-06-19T05:05:46.877Z,100656.56
2023-06-19T05:08:14.117Z,100656.16
2023-06-19T05:10:41.059Z,100653.91
2023-06-19T05:13:07.999Z,100656.31
2023-06-19T05:15:35.182Z,100651.16
2023-06-19T05:18:02.123Z,100656.06
2023-06-19T05:20:33.937Z,100658.59
2023-06-19T05:23:00.805Z,100654.25
2023-06-19T05:25:28.744Z,100656.91
2023-06-19T05:27:55.695Z,100655.53
2023-06-19T05:30:22.912Z,100662.63
2023-06-19T05:32:49.995Z,100657.63
2023-06-19T05:35:20.030Z,100657.25
2023-06-19T05:37:46.919Z,100661.72
2023-06-19T05:40:14.416Z,100657.53
2023-06-19T05:42:42.103Z,100669.16
2023-06-19T05:45:09.354Z,100669.78
2023-06-19T05:47:36.344Z,100677.41
2023-06-19T05:50:07.070Z,100674.97
2023-06-19T05:52:34.056Z,100679.09
2023-06-19T05:55:03.475Z,100687.66
2023-06-19T05:57:30.407Z,100693.69
2023-06-19T05:59:59.843Z,100704.19
2023-06-19T06:02:26.985Z,100712.34
2023-06-19T06:04:53.995Z,100711.03
2023-06-19T06:07:23.023Z,100704.59
2023-06-19T06:09:52.400Z,100703.59
2023-06-19T06:12:19.277Z,100706.28
2023-06-19T06:14:46.226Z,100706.16
2023-06-19T06:17:13.098Z,100701.69
2023-06-19T06:19:40.269Z,100707.31
2023-06-19T06:22:12.804Z,100712.16
2023-06-19T06:24:42.302Z,100711.16
2023-06-19T06:27:11.486Z,100717.44
2023-06-19T06:29:38.455Z,100717.66
2023-06-19T06:32:10.315Z,100716.28
2023-06-19T06:34:37.306Z,100724.09
2023-06-19T06:37:08.823Z,100719.63
2023-06-19T06:39:35.759Z,100712.94
2023-06-19T06:42:05.116Z,100721.16
2023-06-19T06:44:32.059Z,100722.97
2023-06-19T06:47:02.244Z,100717.00
2023-06-19T06:49:31.407Z,100721.38
2023-06-19T06:51:58.564Z,100725.47
2023-06-19T06:54:25.928Z,100723.91
2023-06-19T06:56:57.154Z,100722.47
2023-06-19T06:59:24.131Z,100715.50
2023-06-19T07:01:53.172Z,100723.00
2023-06-19T07:04:20.135Z,100714.25
2023-06-19T07:06:50.049Z,100716.91
2023-06-19T07:09:17.047Z,100721.22
2023-06-19T07:11:43.951Z,100712.56
2023-06-19T07:14:10.954Z,100699.84
2023-06-19T07:16:37.913Z,100703.94
2023-06-19T07:19:04.934Z,100699.78
2023-06-19T07:21:32.476Z,100703.13
2023-06-19T07:24:00.306Z,100701.19
2023-06-19T07:26:27.234Z,100701.34
2023-06-19T07:28:59.276Z,100701.56
2023-06-19T07:31:28.290Z,100701.25
2023-06-19T07:33:57.743Z,100701.44
2023-06-19T07:36:26.954Z,100701.81
2023-06-19T07:38:54.285Z,100703.38
2023-06-19T07:41:21.194Z,100708.78
2023-06-19T07:43:48.466Z,100717.00
2023-06-19T07:46:18.442Z,100704.63
2023-06-19T07:48:47.627Z,100706.50
2023-06-19T07:51:17.063Z,100711.25
2023-06-19T07:53:46.609Z,100713.44
2023-06-19T07:56:13.720Z,100710.38
2023-06-19T07:58:40.743Z,100706.81
2023-06-19T08:01:07.716Z,100697.34
2023-06-19T08:03:34.740Z,100702.66
2023-06-19T08:06:04.105Z,100700.09
2023-06-19T08:08:33.238Z,100697.78
2023-06-19T08:11:02.742Z,100703.88
2023-06-19T08:13:29.649Z,100688.09
2023-06-19T08:15:56.563Z,100701.13
2023-06-19T08:18:23.557Z,100698.41
2023-06-19T08:20:55.307Z,100703.94
2023-06-19T08:23:22.194Z,100711.75
2023-06-19T08:25:49.096Z,100712.34
2023-06-19T08:28:18.550Z,100702.22
2023-06-19T08:30:55.781Z,100692.50
2023-06-19T08:33:22.708Z,100696.69
2023-06-19T08:35:49.676Z,100699.63
2023-06-19T08:38:16.612Z,100701.22
2023-06-19T08:40:48.517Z,100699.53
2023-06-19T08:43:15.533Z,100700.03
2023-06-19T08:45:44.629Z,100705.47
2023-06-19T08:48:17.453Z,100706.78
2023-06-19T08:50:44.368Z,100706.19
2023-06-19T08:53:13.525Z,100713.16
2023-06-19T08:55:42.547Z,100712.91
2023-06-19T08:58:14.485Z,100717.31
2023-06-19T09:00:41.393Z,100716.91
2023-06-19T09:03:14.719Z,100724.16
2023-06-19T09:05:51.386Z,100724.47
2023-06-19T09:08:20.619Z,100733.00
2023-06-19T09:11:03.341Z,100728.41
2023-06-19T09:13:36.018Z,100721.94
2023-06-19T09:16:08.686Z,100714.13
2023-06-19T09:18:49.697Z,100714.97
2023-06-19T09:21:23.283Z,100713.16
2023-06-19T09:23:53.394Z,100702.50
2023-06-19T09:26:25.031Z,100722.94
2023-06-19T09:28:54.298Z,100718.47
2023-06-19T09:31:21.254Z,100720.09
2023-06-19T09:33:50.282Z,100722.75
2023-06-19T09:36:17.313Z,100716.69
2023-06-19T09:38:46.815Z,100722.13
2023-06-19T09:41:16.544Z,100718.31
2023-06-19T09:43:50.114Z,100715.81
2023-06-19T09:46:19.656Z,100711.28
2023-06-19T09:48:49.783Z,100713.22
2023-06-19T09:51:32.191Z,100712.25
2023-06-19T09:54:00.368Z,100717.25
2023-06-19T09:56:30.340Z,100716.13
2023-06-19T09:59:01.264Z,100715.22
2023-06-19T10:01:33.338Z,100710.41
2023-06-19T10:04:09.183Z,100706.34
2023-06-19T10:06:47.595Z,100699.25
2023-06-19T10:09:19.286Z,100716.31
2023-06-19T10:11:54.782Z,100698.25
2023-06-19T10:14:23.399Z,100705.44
2023-06-19T10:16:50.758Z,100698.13
2023-06-19T10:19:23.567Z,100708.84
2023-06-19T10:21:58.828Z,100701.59
2023-06-19T10:24:29.554Z,100701.84
2023-06-19T10:27:02.252Z,100707.91
2023-06-19T10:29:41.612Z,100701.41
2023-06-19T10:32:17.730Z,100699.25
2023-06-19T10:34:50.183Z,100696.78
2023-06-19T10:37:35.516Z,100702.56
2023-06-19T10:40:10.680Z,100694.84
2023-06-19T10:42:41.361Z,100694.75
2023-06-19T10:45:13.495Z,100692.81
2023-06-19T10:47:42.101Z,100684.59
2023-06-19T10:50:18.025Z,100687.75
2023-06-19T10:52:46.557Z,100694.63
2023-06-19T10:55:14.201Z,100689.59
2023-06-19T10:57:47.759Z,100685.72
2023-06-19T11:00:30.954Z,100687.81
2023-06-19T11:02:59.802Z,100686.59
2023-06-19T11:05:31.726Z,100683.03
2023-06-19T11:08:00.302Z,100682.44
2023-06-19T11:10:36.285Z,100684.91
2023-06-19T11:13:05.403Z,100685.97
2023-06-19T11:15:35.962Z,100678.88
2023-06-19T11:18:09.387Z,100685.69
2023-06-19T11:20:49.376Z,100683.50
2023-06-19T11:23:18.558Z,100684.38
2023-06-19T11:25:50.519Z,100675.97
2023-06-19T11:28:26.984Z,100681.75
2023-06-19T11:31:04.722Z,100687.44
2023-06-19T11:33:31.974Z,100688.22
2023-06-19T11:36:02.567Z,100684.84
2023-06-19T11:38:29.837Z,100680.47
2023-06-19T11:40:57.966Z,100681.69
2023-06-19T11:43:36.252Z,100677.34
2023-06-19T11:46:05.542Z,100683.44
2023-06-19T11:48:40.078Z,100683.09
2023-06-19T11:51:07.074Z,100685.97
2023-06-19T11:53:33.990Z,100674.69
2023-06-19T11:56:01.499Z,100670.50
2023-06-19T11:58:28.376Z,100680.66
2023-06-19T12:00:57.605Z,100673.81
2023-06-19T12:03:29.220Z,100666.00
2023-06-19T12:05:56.312Z,100659.44
2023-06-19T12:08:25.769Z,100664.78
2023-06-19T12:10:54.796Z,100666.53
2023-06-19T12:13:23.935Z,100674.22
2023-06-19T12:15:52.238Z,100670.06
2023-06-19T12:18:19.161Z,100681.03
2023-06-19T12:20:46.061Z,100685.50
2023-06-19T12:23:13.050Z,100683.97
2023-06-19T12:25:39.969Z,100684.09
2023-06-19T12:28:09.166Z,100675.09
2023-06-19T12:30:40.710Z,100681.56
2023-06-19T12:33:10.821Z,100674.38
2023-06-19T12:35:45.542Z,100676.84
2023-06-19T12:38:15.459Z,100674.22
2023-06-19T12:40:42.616Z,100670.13
2023-06-19T12:43:12.084Z,100670.59
2023-06-19T12:45:39.025Z,100669.28
2023-06-19T12:48:06.512Z,100674.66
2023-06-19T12:50:35.673Z,100682.41
2023-06-19T12:53:02.554Z,100689.47
2023-06-19T12:55:31.975Z,100685.06
2023-06-19T12:57:58.974Z,100683.03
2023-06-19T13:00:26.202Z,100683.69
2023-06-19T13:02:53.329Z,100675.50
2023-06-19T13:05:20.284Z,100676.69
2023-06-19T13:07:51.855Z,100677.25
2023-06-19T13:10:22.480Z,100679.25
2023-06-19T13:12:54.169Z,100682.53
2023-06-19T13:15:23.407Z,100684.19
2023-06-19T13:17:50.400Z,100693.19
2023-06-19T13:20:20.008Z,100688.88
2023-06-19T13:22:47.011Z,100703.38
2023-06-19T13:25:18.558Z,100707.28
2023-06-19T13:27:47.679Z,100705.22
2023-06-19T13:30:15.210Z,100699.13
2023-06-19T13:32:46.724Z,100700.88
2023-06-19T13:35:13.738Z,100709.44
2023-06-19T13:37:40.973Z,100707.56
2023-06-19T13:40:11.383Z,100695.47
2023-06-19T13:42:40.589Z,100691.94
2023-06-19T13:45:08.261Z,100690.38
2023-06-19T13:47:38.135Z,100710.78
2023-06-19T13:50:10.870Z,100704.63
2023-06-19T13:52:37.778Z,100700.50
2023-06-19T13:55:07.552Z,100694.06
2023-06-19T13:57:38.566Z,100697.41
2023-06-19T14:00:10.866Z,100694.97
2023-06-19T14:02:39.764Z,100702.56
2023-06-19T14:05:08.829Z,100696.19
2023-06-19T14:07:38.743Z,100701.97
2023-06-19T14:10:11.752Z,100703.53
2023-06-19T14:12:43.792Z,100705.94
2023-06-19T14:15:13.043Z,100719.81
2023-06-19T14:17:42.186Z,100716.81
2023-06-19T14:20:14.554Z,100717.56
2023-06-19T14:22:43.804Z,100717.31
2023-06-19T14:25:11.064Z,100724.53
2023-06-19T14:27:41.111Z,100720.25
2023-06-19T14:30:09.444Z,100730.09
2023-06-19T14:32:39.126Z,100725.53
2023-06-19T14:35:07.379Z,100733.41
2023-06-19T14:37:34.450Z,100727.66
2023-06-19T14:48:18.327Z,100742.06
2023-06-19T14:50:45.436Z,100745.16
2023-06-19T14:53:12.562Z,100743.31
2023-06-19T14:55:47.761Z,100750.09
2023-06-19T14:58:15.409Z,100749.56
2023-06-19T15:00:45.284Z,100748.09
2023-06-19T15:03:16.115Z,100756.28
2023-06-19T15:05:46.118Z,100752.25
2023-06-19T15:08:13.108Z,100751.63
2023-06-19T15:10:42.367Z,100758.06
2023-06-19T15:13:11.385Z,100757.22
2023-06-19T15:15:38.464Z,100764.19
2023-06-19T15:18:08.203Z,100766.88
2023-06-19T15:20:35.373Z,100767.50
2023-06-19T15:23:02.277Z,100753.00
2023-06-19T15:25:32.184Z,100766.06
2023-06-19T15:28:04.083Z,100775.44
2023-06-19T15:30:38.145Z,100766.16
2023-06-19T15:33:07.724Z,100776.38
2023-06-19T15:35:34.795Z,100771.75
2023-06-19T15:38:04.084Z,100773.25
2023-06-19T15:40:33.730Z,100771.94
2023-06-19T15:43:03.415Z,100784.75
2023-06-19T15:45:33.367Z,100776.69
2023-06-19T15:48:02.334Z,100785.00
2023-06-19T15:50:29.679Z,100778.97
2023-06-19T15:52:59.702Z,100779.44
2023-06-19T15:55:28.596Z,100779.75
2023-06-19T15:57:55.669Z,100779.25
2023-06-19T16:00:22.804Z,100774.66
2023-06-19T16:02:50.266Z,100770.22
2023-06-19T16:05:18.045Z,100770.47
2023-06-19T16:07:45.210Z,100776.56
2023-06-19T16:10:12.328Z,100761.19
2023-06-19T16:12:42.100Z,100771.56
2023-06-19T16:15:10.367Z,100774.19
2023-06-19T16:17:43.181Z,100771.25
2023-06-19T16:20:11.674Z,100778.13
2023-06-19T16:22:38.846Z,100766.78
2023-06-19T16:25:10.180Z,100769.28
2023-06-19T16:27:42.630Z,100772.59
2023-06-19T16:30:10.589Z,100766.59
2023-06-19T16:32:37.746Z,100773.34
2023-06-19T16:35:05.970Z,100775.28
2023-06-19T16:37:32.946Z,100763.88
2023-06-19T16:40:02.436Z,100769.94
2023-06-19T16:42:29.369Z,100762.97
2023-06-19T16:44:56.427Z,100761.38
2023-06-19T16:47:23.635Z,100769.09
2023-06-19T16:49:51.052Z,100770.44
2023-06-19T16:52:21.144Z,100762.84
2023-06-19T16:54:48.091Z,100763.59
2023-06-19T16:57:19.281Z,100774.53
2023-06-19T16:59:49.138Z,100767.44
2023-06-19T17:02:16.123Z,100774.66
2023-06-19T17:04:43.291Z,100768.97
2023-06-19T17:07:10.216Z,100776.56
2023-06-19T17:09:39.716Z,100774.66
2023-06-19T17:12:07.241Z,100777.63
2023-06-19T17:14:34.210Z,100773.44
2023-06-19T17:17:03.978Z,100780.03
2023-06-19T17:19:30.961Z,100785.47
2023-06-19T17:22:00.222Z,100787.28
2023-06-19T17:24:31.723Z,100781.91
2023-06-19T17:27:01.926Z,100782.63
2023-06-19T17:29:28.910Z,100786.56
2023-06-19T17:31:58.539Z,100779.41
2023-06-19T17:34:25.598Z,100777.56
2023-06-19T17:36:55.147Z,100782.28
2023-06-19T17:39:24.353Z,100784.09
2023-06-19T17:41:53.792Z,100795.28
2023-06-19T17:44:26.683Z,100792.28
2023-06-19T17:46:56.396Z,100792.97
2023-06-19T17:49:23.758Z,100798.56
2023-06-19T17:51:50.887Z,100793.66
2023-06-19T17:54:22.445Z,100796.13
2023-06-19T17:56:52.564Z,100797.16
2023-06-19T17:59:21.651Z,100794.97
2023-06-19T18:01:50.726Z,100793.09
2023-06-19T18:04:17.906Z,100799.66
2023-06-19T18:06:49.634Z,100803.34
2023-06-19T18:09:16.568Z,100804.34
2023-06-19T18:11:43.612Z,100801.09
2023-06-19T18:14:15.292Z,100798.94
2023-06-19T18:16:43.882Z,100810.41
2023-06-19T18:19:13.085Z,100803.56
2023-06-19T18:21:42.140Z,100809.22
2023-06-19T18:24:13.829Z,100810.25
2023-06-19T18:26:43.027Z,100807.13
2023-06-19T18:29:10.140Z,100814.38
2023-06-19T18:31:42.362Z,100814.94
2023-06-19T18:34:12.529Z,100822.22
2023-06-19T18:36:39.456Z,100814.47
2023-06-19T18:39:07.674Z,100823.41
2023-06-19T18:41:34.732Z,100824.63
2023-06-19T18:44:01.749Z,100821.56
2023-06-19T18:46:34.926Z,100823.84
2023-06-19T18:49:01.927Z,100824.69
2023-06-19T18:51:28.988Z,100824.72
2023-06-19T18:53:58.002Z,100823.13
2023-06-19T18:56:25.212Z,100832.06
2023-06-19T18:58:52.211Z,100831.72
2023-06-19T19:01:20.509Z,100823.19
2023-06-19T19:03:47.541Z,100822.63
2023-06-19T19:06:18.447Z,100832.72
2023-06-19T19:08:47.693Z,100832.22
2023-06-19T19:11:14.953Z,100837.56
2023-06-19T19:13:41.851Z,100836.75
2023-06-19T19:16:13.197Z,100846.81
2023-06-19T19:18:40.274Z,100840.16
2023-06-19T19:21:07.393Z,100853.66
2023-06-19T19:23:35.698Z,100863.13
2023-06-19T19:26:08.777Z,100874.91
2023-06-19T19:28:37.574Z,100867.66
2023-06-19T19:31:05.284Z,100873.28
2023-06-19T19:33:34.374Z,100885.53
2023-06-19T19:36:02.317Z,100879.38
2023-06-19T19:38:30.909Z,100883.31
2023-06-19T19:41:00.061Z,100881.09
2023-06-19T19:43:29.252Z,100881.38
2023-06-19T19:45:59.376Z,100888.34
2023-06-19T19:48:28.996Z,100884.47
2023-06-19T19:50:59.118Z,100886.16
2023-06-19T19:53:26.250Z,100904.56
2023-06-19T19:55:53.614Z,100907.06
2023-06-19T19:58:20.823Z,100907.91
2023-06-19T20:00:50.632Z,100913.78
2023-06-19T20:03:18.279Z,100917.34
2023-06-19T20:05:45.403Z,100915.41
2023-06-19T20:08:12.454Z,100932.94
2023-06-19T20:10:39.607Z,100937.66
2023-06-19T20:13:09.838Z,100940.59
2023-06-19T20:15:36.897Z,100942.84
2023-06-19T20:18:04.392Z,100942.22
2023-06-19T20:20:34.141Z,100937.97
2023-06-19T20:23:01.812Z,100939.44
2023-06-19T20:25:33.600Z,100943.84
2023-06-19T20:28:08.473Z,100942.72
2023-06-19T20:30:36.580Z,100956.88
2023-06-19T20:33:04.473Z,100944.66
2023-06-19T20:35:32.361Z,100947.41
2023-06-19T20:38:00.376Z,100948.72
2023-06-19T20:40:28.879Z,100950.09
2023-06-19T20:42:56.507Z,100958.63
2023-06-19T20:45:27.514Z,100951.84
2023-06-19T20:47:55.020Z,100952.94
2023-06-19T20:50:22.529Z,100955.44
2023-06-19T20:52:49.953Z,100946.47
2023-06-19T20:55:17.894Z,100942.31
2023-06-19T20:57:45.350Z,100948.97
2023-06-19T21:00:13.606Z,100947.97
2023-06-19T21:02:41.356Z,100950.19
2023-06-19T21:05:13.267Z,100956.22
2023-06-19T21:07:46.829Z,100958.78
2023-06-19T21:10:16.733Z,100969.00
2023-06-19T21:12:47.749Z,100965.78
2023-06-19T21:15:17.613Z,100969.47
2023-06-19T21:17:45.200Z,100973.44
2023-06-19T21:20:12.975Z,100972.97
2023-06-19T21:22:43.135Z,100975.75
2023-06-19T21:25:10.592Z,100978.59
2023-06-19T21:27:38.539Z,100979.22
2023-06-19T21:30:09.332Z,100982.03
2023-06-19T21:32:39.215Z,100978.97
2023-06-19T21:35:09.884Z,100980.47
2023-06-19T21:37:37.021Z,100977.84
2023-06-19T21:40:05.127Z,100985.91
2023-06-19T21:42:33.836Z,100974.41
2023-06-19T21:45:01.104Z,100971.56
2023-06-19T21:47:28.441Z,100972.19
2023-06-19T21:49:56.321Z,100966.22
2023-06-19T21:52:23.523Z,100965.09
2023-06-19T21:54:51.128Z,100973.69
2023-06-19T21:57:18.600Z,100975.50
2023-06-19T21:59:46.066Z,100969.19
2023-06-19T22:02:15.490Z,100974.28
2023-06-19T22:04:43.147Z,100973.69
2023-06-19T22:07:12.257Z,100992.28
2023-06-19T22:09:41.368Z,100978.91
2023-06-19T22:12:09.583Z,100992.66
2023-06-19T22:14:41.609Z,100994.41
2023-06-19T22:17:09.726Z,100994.44
2023-06-19T22:19:40.037Z,100994.31
2023-06-19T22:22:07.870Z,101000.16
2023-06-19T22:24:37.417Z,100994.69
2023-06-19T22:27:11.316Z,100998.31
2023-06-19T22:29:38.849Z,100995.19
2023-06-19T22:32:06.396Z,100995.03
2023-06-19T22:34:36.378Z,101006.03
2023-06-19T22:37:04.370Z,101008.78
2023-06-19T22:39:34.366Z,101010.06
2023-06-19T22:42:02.134Z,101017.19
2023-06-19T22:44:29.329Z,101012.34
2023-06-19T22:46:56.395Z,101024.25
2023-06-19T22:49:30.499Z,101025.25
2023-06-19T22:52:00.729Z,101016.63
2023-06-19T22:54:28.373Z,101024.59
2023-06-19T22:56:56.519Z,101021.72
2023-06-19T22:59:26.175Z,101017.63
2023-06-19T23:01:53.470Z,101023.69
2023-06-19T23:04:23.337Z,101028.78
2023-06-19T23:06:52.460Z,101014.81
2023-06-19T23:09:19.786Z,101018.72
2023-06-19T23:11:49.562Z,101008.69
2023-06-19T23:14:16.950Z,101005.69
2023-06-19T23:16:47.220Z,101014.97
2023-06-19T23:19:16.939Z,101016.50
2023-06-19T23:21:44.416Z,101021.06
2023-06-19T23:24:11.846Z,101019.47
2023-06-19T23:26:41.354Z,101021.91
2023-06-19T23:29:08.758Z,101028.31
2023-06-19T23:31:41.951Z,101022.16
2023-06-19T23:34:11.547Z,101028.66
2023-06-19T23:36:38.655Z,101020.91
2023-06-19T23:39:06.055Z,101018.38
2023-06-19T23:41:36.395Z,101021.53
2023-06-19T23:44:06.346Z,101022.06
2023-06-19T23:46:34.809Z,101023.63
2023-06-19T23:49:01.995Z,101033.97
2023-06-19T23:51:31.987Z,101030.25
2023-06-19T23:54:01.650Z,101027.47
2023-06-19T23:56:31.913Z,101029.88
2023-06-19T23:58:59.387Z,101026.91
